sensor_id;sensor_type;location;lat;lon;timestamp;pressure;altitude;pressure_sealevel;temperature;humidity
14295;BME280;7231;59.370;18.016;2023-02-21T00:01:28;98843.69;;;-1.13;96.12
14295;BME280;7231;59.370;18.016;2023-02-21T00:04:14;98845.31;;;-1.15;96.08
14295;BME280;7231;59.370;18.016;2023-02-21T00:06:59;98859.13;;;-1.13;96.00
14295;BME280;7231;59.370;18.016;2023-02-21T00:09:45;98864.88;;;-1.19;96.17
14295;BME280;7231;59.370;18.016;2023-02-21T00:12:30;98867.25;;;-1.23;96.24
14295;BME280;7231;59.370;18.016;2023-02-21T00:15:17;98872.19;;;-1.28;96.32
14295;BME280;7231;59.370;18.016;2023-02-21T00:18:02;98875.59;;;-1.29;96.67
14295;BME280;7231;59.370;18.016;2023-02-21T00:20:47;98873.56;;;-1.36;96.58
14295;BME280;7231;59.370;18.016;2023-02-21T00:23:33;98881.53;;;-1.30;96.72
14295;BME280;7231;59.370;18.016;2023-02-21T00:26:19;98863.75;;;-1.45;96.66
14295;BME280;7231;59.370;18.016;2023-02-21T00:29:05;98887.50;;;-1.31;96.94
14295;BME280;7231;59.370;18.016;2023-02-21T00:31:52;98889.13;;;-1.33;96.83
14295;BME280;7231;59.370;18.016;2023-02-21T00:34:38;98888.09;;;-1.37;96.68
14295;BME280;7231;59.370;18.016;2023-02-21T00:37:23;98895.63;;;-1.41;96.84
14295;BME280;7231;59.370;18.016;2023-02-21T00:40:10;98836.41;;;-1.83;97.06
14295;BME280;7231;59.370;18.016;2023-02-21T00:42:56;98891.84;;;-1.49;97.46
14295;BME280;7231;59.370;18.016;2023-02-21T00:45:42;98912.88;;;-1.39;97.52
14295;BME280;7231;59.370;18.016;2023-02-21T00:48:30;98918.06;;;-1.37;97.45
14295;BME280;7231;59.370;18.016;2023-02-21T00:51:16;98921.66;;;-1.34;97.96
14295;BME280;7231;59.370;18.016;2023-02-21T00:54:02;98937.16;;;-1.32;97.75
14295;BME280;7231;59.370;18.016;2023-02-21T00:56:47;98940.66;;;-1.30;97.90
14295;BME280;7231;59.370;18.016;2023-02-21T00:59:33;98947.56;;;-1.29;97.85
14295;BME280;7231;59.370;18.016;2023-02-21T01:02:18;98932.28;;;-1.45;97.81
14295;BME280;7231;59.370;18.016;2023-02-21T01:05:06;98953.13;;;-1.39;97.77
14295;BME280;7231;59.370;18.016;2023-02-21T01:07:52;98959.13;;;-1.39;98.15
14295;BME280;7231;59.370;18.016;2023-02-21T01:10:37;98965.22;;;-1.37;98.06
14295;BME280;7231;59.370;18.016;2023-02-21T01:13:22;98978.13;;;-1.35;98.22
14295;BME280;7231;59.370;18.016;2023-02-21T01:16:08;98980.78;;;-1.34;98.33
14295;BME280;7231;59.370;18.016;2023-02-21T01:18:53;98992.81;;;-1.33;98.36
14295;BME280;7231;59.370;18.016;2023-02-21T01:21:40;99000.47;;;-1.34;98.27
14295;BME280;7231;59.370;18.016;2023-02-21T01:24:26;98965.00;;;-1.60;98.26
14295;BME280;7231;59.370;18.016;2023-02-21T01:27:11;99009.72;;;-1.38;98.51
14295;BME280;7231;59.370;18.016;2023-02-21T01:29:57;99016.56;;;-1.38;98.55
14295;BME280;7231;59.370;18.016;2023-02-21T01:32:43;99030.28;;;-1.38;98.74
14295;BME280;7231;59.370;18.016;2023-02-21T01:35:28;99031.16;;;-1.37;98.61
14295;BME280;7231;59.370;18.016;2023-02-21T01:38:15;99042.34;;;-1.37;98.74
14295;BME280;7231;59.370;18.016;2023-02-21T01:41:00;99027.38;;;-1.45;98.92
14295;BME280;7231;59.370;18.016;2023-02-21T01:44:00;99058.78;;;-1.33;99.16
14295;BME280;7231;59.370;18.016;2023-02-21T01:46:45;99066.63;;;-1.30;99.11
14295;BME280;7231;59.370;18.016;2023-02-21T01:49:32;99071.97;;;-1.25;99.24
14295;BME280;7231;59.370;18.016;2023-02-21T01:52:19;99072.13;;;-1.22;99.43
14295;BME280;7231;59.370;18.016;2023-02-21T01:55:06;99075.66;;;-1.20;99.55
14295;BME280;7231;59.370;18.016;2023-02-21T01:57:52;99086.94;;;-1.17;99.59
14295;BME280;7231;59.370;18.016;2023-02-21T02:00:39;99095.63;;;-1.15;99.83
14295;BME280;7231;59.370;18.016;2023-02-21T02:03:25;99069.47;;;-1.24;100.00
14295;BME280;7231;59.370;18.016;2023-02-21T02:06:13;99089.06;;;-1.08;100.00
14295;BME280;7231;59.370;18.016;2023-02-21T02:09:12;99100.38;;;-1.05;100.00
14295;BME280;7231;59.370;18.016;2023-02-21T02:12:14;99105.44;;;-1.06;100.00
14295;BME280;7231;59.370;18.016;2023-02-21T02:15:14;99105.31;;;-1.09;100.00
14295;BME280;7231;59.370;18.016;2023-02-21T02:17:59;99108.63;;;-1.12;100.00
14295;BME280;7231;59.370;18.016;2023-02-21T02:20:58;99116.34;;;-1.12;100.00
14295;BME280;7231;59.370;18.016;2023-02-21T02:23:43;99130.00;;;-1.13;99.98
14295;BME280;7231;59.370;18.016;2023-02-21T02:29:34;99142.94;;;-1.11;100.00
14295;BME280;7231;59.370;18.016;2023-02-21T02:32:23;99147.34;;;-1.09;100.00
14295;BME280;7231;59.370;18.016;2023-02-21T02:35:00;99149.97;;;-1.07;100.00
14295;BME280;7231;59.370;18.016;2023-02-21T02:37:35;99080.53;;;-1.44;100.00
14295;BME280;7231;59.370;18.016;2023-02-21T02:40:14;99152.63;;;-1.06;100.00
14295;BME280;7231;59.370;18.016;2023-02-21T02:42:54;99156.94;;;-1.05;100.00
14295;BME280;7231;59.370;18.016;2023-02-21T02:45:29;99155.13;;;-1.07;100.00
14295;BME280;7231;59.370;18.016;2023-02-21T02:48:04;99162.91;;;-1.06;100.00
14295;BME280;7231;59.370;18.016;2023-02-21T02:50:35;99172.16;;;-1.09;100.00
14295;BME280;7231;59.370;18.016;2023-02-21T02:53:03;99177.16;;;-1.12;100.00
14295;BME280;7231;59.370;18.016;2023-02-21T02:55:38;99123.78;;;-1.53;100.00
14295;BME280;7231;59.370;18.016;2023-02-21T02:58:09;99190.69;;;-1.16;100.00
14295;BME280;7231;59.370;18.016;2023-02-21T03:00:41;99194.16;;;-1.16;100.00
14295;BME280;7231;59.370;18.016;2023-02-21T03:03:34;99205.91;;;-1.03;100.00
14295;BME280;7231;59.370;18.016;2023-02-21T03:06:18;99200.31;;;-0.94;99.81
14295;BME280;7231;59.370;18.016;2023-02-21T03:08:53;99203.00;;;-0.91;99.30
14295;BME280;7231;59.370;18.016;2023-02-21T03:11:25;99192.59;;;-0.94;99.12
14295;BME280;7231;59.370;18.016;2023-02-21T03:13:56;99206.41;;;-0.92;99.11
14295;BME280;7231;59.370;18.016;2023-02-21T03:16:30;99218.44;;;-0.91;99.00
14295;BME280;7231;59.370;18.016;2023-02-21T03:19:03;99225.28;;;-0.92;98.94
14295;BME280;7231;59.370;18.016;2023-02-21T03:21:38;99233.97;;;-0.90;99.06
14295;BME280;7231;59.370;18.016;2023-02-21T03:24:09;99248.59;;;-0.89;99.05
14295;BME280;7231;59.370;18.016;2023-02-21T03:26:40;99256.22;;;-0.90;99.15
14295;BME280;7231;59.370;18.016;2023-02-21T03:29:10;99276.66;;;-0.93;99.17
14295;BME280;7231;59.370;18.016;2023-02-21T03:31:42;99278.22;;;-0.97;99.20
14295;BME280;7231;59.370;18.016;2023-02-21T03:34:11;99289.22;;;-1.00;99.53
14295;BME280;7231;59.370;18.016;2023-02-21T03:36:41;99290.03;;;-1.01;99.84
14295;BME280;7231;59.370;18.016;2023-02-21T03:39:09;99247.31;;;-1.33;100.00
14295;BME280;7231;59.370;18.016;2023-02-21T03:41:37;99271.06;;;-1.20;99.97
14295;BME280;7231;59.370;18.016;2023-02-21T03:44:05;99306.84;;;-1.07;100.00
14295;BME280;7231;59.370;18.016;2023-02-21T03:46:33;99309.44;;;-1.07;100.00
14295;BME280;7231;59.370;18.016;2023-02-21T03:49:01;99305.59;;;-1.15;100.00
14295;BME280;7231;59.370;18.016;2023-02-21T03:51:29;99323.25;;;-1.05;100.00
14295;BME280;7231;59.370;18.016;2023-02-21T03:53:58;99322.13;;;-1.10;100.00
14295;BME280;7231;59.370;18.016;2023-02-21T03:56:26;99324.34;;;-1.18;100.00
14295;BME280;7231;59.370;18.016;2023-02-21T03:59:07;99341.41;;;-1.02;100.00
14295;BME280;7231;59.370;18.016;2023-02-21T04:01:35;99343.25;;;-1.00;100.00
14295;BME280;7231;59.370;18.016;2023-02-21T04:04:03;99349.28;;;-0.99;100.00
14295;BME280;7231;59.370;18.016;2023-02-21T04:06:31;99354.56;;;-0.96;100.00
14295;BME280;7231;59.370;18.016;2023-02-21T04:09:00;99358.84;;;-0.96;100.00
14295;BME280;7231;59.370;18.016;2023-02-21T04:11:29;99359.78;;;-0.94;100.00
14295;BME280;7231;59.370;18.016;2023-02-21T04:13:57;99357.06;;;-0.98;100.00
14295;BME280;7231;59.370;18.016;2023-02-21T04:16:25;99359.63;;;-0.98;100.00
14295;BME280;7231;59.370;18.016;2023-02-21T04:18:53;99358.44;;;-1.04;100.00
14295;BME280;7231;59.370;18.016;2023-02-21T04:21:22;99377.94;;;-0.91;100.00
14295;BME280;7231;59.370;18.016;2023-02-21T04:23:50;99381.47;;;-0.89;100.00
14295;BME280;7231;59.370;18.016;2023-02-21T04:26:20;99386.78;;;-0.86;100.00
14295;BME280;7231;59.370;18.016;2023-02-21T04:28:49;99397.06;;;-0.86;100.00
14295;BME280;7231;59.370;18.016;2023-02-21T04:31:17;99405.44;;;-0.90;100.00
14295;BME280;7231;59.370;18.016;2023-02-21T04:33:45;99411.63;;;-0.87;100.00
14295;BME280;7231;59.370;18.016;2023-02-21T04:36:13;99422.88;;;-0.85;100.00
14295;BME280;7231;59.370;18.016;2023-02-21T04:38:41;99382.19;;;-1.10;100.00
14295;BME280;7231;59.370;18.016;2023-02-21T04:41:10;99430.50;;;-0.86;100.00
14295;BME280;7231;59.370;18.016;2023-02-21T04:43:42;99438.25;;;-0.86;100.00
14295;BME280;7231;59.370;18.016;2023-02-21T04:46:11;99381.41;;;-1.25;100.00
14295;BME280;7231;59.370;18.016;2023-02-21T04:48:41;99454.41;;;-0.89;100.00
14295;BME280;7231;59.370;18.016;2023-02-21T04:51:12;99460.44;;;-0.88;100.00
14295;BME280;7231;59.370;18.016;2023-02-21T04:53:41;99467.34;;;-0.87;100.00
14295;BME280;7231;59.370;18.016;2023-02-21T04:56:09;99477.78;;;-0.84;100.00
14295;BME280;7231;59.370;18.016;2023-02-21T04:58:38;99467.03;;;-0.93;100.00
14295;BME280;7231;59.370;18.016;2023-02-21T05:01:13;99426.69;;;-1.11;100.00
14295;BME280;7231;59.370;18.016;2023-02-21T05:03:42;99486.47;;;-0.82;100.00
14295;BME280;7231;59.370;18.016;2023-02-21T05:06:16;99496.91;;;-0.79;100.00
14295;BME280;7231;59.370;18.016;2023-02-21T05:08:44;99432.34;;;-1.18;100.00
14295;BME280;7231;59.370;18.016;2023-02-21T05:11:12;99514.28;;;-0.75;100.00
14295;BME280;7231;59.370;18.016;2023-02-21T05:13:41;99496.44;;;-0.88;100.00
14295;BME280;7231;59.370;18.016;2023-02-21T05:16:09;99480.47;;;-0.99;100.00
14295;BME280;7231;59.370;18.016;2023-02-21T05:18:40;99521.34;;;-0.71;100.00
14295;BME280;7231;59.370;18.016;2023-02-21T05:21:08;99524.09;;;-0.68;100.00
14295;BME280;7231;59.370;18.016;2023-02-21T05:23:37;99521.59;;;-0.67;100.00
14295;BME280;7231;59.370;18.016;2023-02-21T05:26:08;99455.16;;;-1.08;100.00
14295;BME280;7231;59.370;18.016;2023-02-21T05:28:37;99520.78;;;-0.66;100.00
14295;BME280;7231;59.370;18.016;2023-02-21T05:31:06;99511.06;;;-0.71;100.00
14295;BME280;7231;59.370;18.016;2023-02-21T05:33:34;99537.34;;;-0.60;100.00
14295;BME280;7231;59.370;18.016;2023-02-21T05:36:04;99544.34;;;-0.58;100.00
14295;BME280;7231;59.370;18.016;2023-02-21T05:38:32;99548.69;;;-0.57;100.00
14295;BME280;7231;59.370;18.016;2023-02-21T05:41:10;99552.22;;;-0.55;100.00
14295;BME280;7231;59.370;18.016;2023-02-21T05:43:38;99562.59;;;-0.53;100.00
14295;BME280;7231;59.370;18.016;2023-02-21T05:46:06;99564.44;;;-0.51;100.00
14295;BME280;7231;59.370;18.016;2023-02-21T05:48:34;99570.56;;;-0.49;100.00
14295;BME280;7231;59.370;18.016;2023-02-21T05:51:04;99560.25;;;-0.49;100.00
14295;BME280;7231;59.370;18.016;2023-02-21T05:53:32;99571.53;;;-0.47;100.00
14295;BME280;7231;59.370;18.016;2023-02-21T05:56:00;99571.59;;;-0.45;100.00
14295;BME280;7231;59.370;18.016;2023-02-21T05:58:28;99577.56;;;-0.46;100.00
14295;BME280;7231;59.370;18.016;2023-02-21T06:00:56;99569.50;;;-0.52;100.00
14295;BME280;7231;59.370;18.016;2023-02-21T06:03:24;99588.50;;;-0.50;100.00
14295;BME280;7231;59.370;18.016;2023-02-21T06:05:52;99574.34;;;-0.58;100.00
14295;BME280;7231;59.370;18.016;2023-02-21T06:08:21;99574.19;;;-0.61;100.00
14295;BME280;7231;59.370;18.016;2023-02-21T06:10:49;99604.81;;;-0.50;100.00
14295;BME280;7231;59.370;18.016;2023-02-21T06:13:17;99584.41;;;-0.63;100.00
14295;BME280;7231;59.370;18.016;2023-02-21T06:15:45;99570.91;;;-0.75;100.00
14295;BME280;7231;59.370;18.016;2023-02-21T06:18:14;99613.53;;;-0.48;100.00
14295;BME280;7231;59.370;18.016;2023-02-21T06:20:42;99618.97;;;-0.42;100.00
14295;BME280;7231;59.370;18.016;2023-02-21T06:23:10;99629.38;;;-0.40;100.00
14295;BME280;7231;59.370;18.016;2023-02-21T06:25:40;99634.75;;;-0.36;100.00
14295;BME280;7231;59.370;18.016;2023-02-21T06:28:08;99640.94;;;-0.32;100.00
14295;BME280;7231;59.370;18.016;2023-02-21T06:30:36;99641.09;;;-0.29;100.00
14295;BME280;7231;59.370;18.016;2023-02-21T06:33:04;99659.22;;;-0.27;100.00
14295;BME280;7231;59.370;18.016;2023-02-21T06:35:32;99654.47;;;-0.36;100.00
14295;BME280;7231;59.370;18.016;2023-02-21T06:38:00;99622.38;;;-0.59;100.00
14295;BME280;7231;59.370;18.016;2023-02-21T06:40:28;99676.91;;;-0.34;100.00
14295;BME280;7231;59.370;18.016;2023-02-21T06:42:57;99684.81;;;-0.30;100.00
14295;BME280;7231;59.370;18.016;2023-02-21T06:45:35;99628.00;;;-0.66;100.00
14295;BME280;7231;59.370;18.016;2023-02-21T06:48:03;99703.97;;;-0.25;100.00
14295;BME280;7231;59.370;18.016;2023-02-21T06:50:31;99657.94;;;-0.52;100.00
14295;BME280;7231;59.370;18.016;2023-02-21T06:52:59;99714.59;;;-0.19;100.00
14295;BME280;7231;59.370;18.016;2023-02-21T06:55:27;99683.44;;;-0.40;100.00
14295;BME280;7231;59.370;18.016;2023-02-21T06:57:57;99731.31;;;-0.11;100.00
14295;BME280;7231;59.370;18.016;2023-02-21T07:00:25;99734.63;;;-0.14;100.00
14295;BME280;7231;59.370;18.016;2023-02-21T07:02:53;99753.94;;;-0.06;100.00
14295;BME280;7231;59.370;18.016;2023-02-21T07:05:21;99772.94;;;-0.04;100.00
14295;BME280;7231;59.370;18.016;2023-02-21T07:07:49;99765.06;;;-0.07;100.00
14295;BME280;7231;59.370;18.016;2023-02-21T07:10:17;99731.16;;;-0.30;100.00
14295;BME280;7231;59.370;18.016;2023-02-21T07:12:45;99801.50;;;0.01;100.00
14295;BME280;7231;59.370;18.016;2023-02-21T07:15:14;99797.91;;;-0.03;100.00
14295;BME280;7231;59.370;18.016;2023-02-21T07:17:42;99811.81;;;0.01;100.00
14295;BME280;7231;59.370;18.016;2023-02-21T07:20:10;99812.69;;;0.02;100.00
14295;BME280;7231;59.370;18.016;2023-02-21T07:22:38;99829.19;;;0.05;100.00
14295;BME280;7231;59.370;18.016;2023-02-21T07:25:06;99843.06;;;0.07;100.00
14295;BME280;7231;59.370;18.016;2023-02-21T07:27:34;99852.47;;;0.07;100.00
14295;BME280;7231;59.370;18.016;2023-02-21T07:30:03;99857.31;;;0.00;100.00
14295;BME280;7231;59.370;18.016;2023-02-21T07:32:35;99866.75;;;0.00;100.00
14295;BME280;7231;59.370;18.016;2023-02-21T07:35:03;99891.06;;;0.05;100.00
14295;BME280;7231;59.370;18.016;2023-02-21T07:37:31;99891.06;;;0.05;100.00
14295;BME280;7231;59.370;18.016;2023-02-21T07:39:59;99912.56;;;0.06;100.00
14295;BME280;7231;59.370;18.016;2023-02-21T07:42:27;99908.91;;;0.02;100.00
14295;BME280;7231;59.370;18.016;2023-02-21T07:44:56;99927.03;;;0.04;100.00
14295;BME280;7231;59.370;18.016;2023-02-21T07:47:25;99932.13;;;0.02;100.00
14295;BME280;7231;59.370;18.016;2023-02-21T07:49:55;99931.09;;;-0.02;100.00
14295;BME280;7231;59.370;18.016;2023-02-21T07:52:22;99887.28;;;-0.32;100.00
14295;BME280;7231;59.370;18.016;2023-02-21T07:54:50;99957.25;;;0.06;100.00
14295;BME280;7231;59.370;18.016;2023-02-21T07:57:18;99960.81;;;0.08;100.00
14295;BME280;7231;59.370;18.016;2023-02-21T07:59:47;99971.28;;;0.11;100.00
14295;BME280;7231;59.370;18.016;2023-02-21T08:02:15;99967.47;;;0.05;100.00
14295;BME280;7231;59.370;18.016;2023-02-21T08:04:44;99963.94;;;0.03;100.00
14295;BME280;7231;59.370;18.016;2023-02-21T08:07:13;99993.28;;;0.21;100.00
14295;BME280;7231;59.370;18.016;2023-02-21T08:09:41;100002.72;;;0.20;100.00
14295;BME280;7231;59.370;18.016;2023-02-21T08:12:09;100016.13;;;0.29;100.00
14295;BME280;7231;59.370;18.016;2023-02-21T08:14:36;100023.06;;;0.30;100.00
14295;BME280;7231;59.370;18.016;2023-02-21T08:17:04;100024.81;;;0.31;100.00
14295;BME280;7231;59.370;18.016;2023-02-21T08:19:32;100018.09;;;0.19;100.00
14295;BME280;7231;59.370;18.016;2023-02-21T08:22:00;99990.94;;;0.09;100.00
14295;BME280;7231;59.370;18.016;2023-02-21T08:24:30;100047.75;;;0.42;100.00
14295;BME280;7231;59.370;18.016;2023-02-21T08:26:58;100042.56;;;0.42;100.00
14295;BME280;7231;59.370;18.016;2023-02-21T08:29:26;100055.72;;;0.46;100.00
14295;BME280;7231;59.370;18.016;2023-02-21T08:31:54;100065.66;;;0.55;100.00
14295;BME280;7231;59.370;18.016;2023-02-21T08:34:22;100070.19;;;0.59;100.00
14295;BME280;7231;59.370;18.016;2023-02-21T08:36:50;100058.66;;;0.52;100.00
14295;BME280;7231;59.370;18.016;2023-02-21T08:39:18;100063.00;;;0.53;100.00
14295;BME280;7231;59.370;18.016;2023-02-21T08:41:48;100089.09;;;0.74;100.00
14295;BME280;7231;59.370;18.016;2023-02-21T08:44:17;100104.44;;;0.87;100.00
14295;BME280;7231;59.370;18.016;2023-02-21T08:46:47;100110.66;;;0.91;100.00
14295;BME280;7231;59.370;18.016;2023-02-21T08:49:15;100120.34;;;0.95;100.00
14295;BME280;7231;59.370;18.016;2023-02-21T08:51:43;100125.91;;;1.03;100.00
14295;BME280;7231;59.370;18.016;2023-02-21T08:54:11;100136.31;;;1.04;100.00
14295;BME280;7231;59.370;18.016;2023-02-21T08:56:39;100126.38;;;0.95;100.00
14295;BME280;7231;59.370;18.016;2023-02-21T08:59:08;100148.75;;;1.11;100.00
14295;BME280;7231;59.370;18.016;2023-02-21T09:01:36;100158.53;;;1.17;100.00
14295;BME280;7231;59.370;18.016;2023-02-21T09:04:04;100153.69;;;1.23;100.00
14295;BME280;7231;59.370;18.016;2023-02-21T09:06:33;100174.13;;;1.35;100.00
14295;BME280;7231;59.370;18.016;2023-02-21T09:09:00;100173.47;;;1.39;100.00
14295;BME280;7231;59.370;18.016;2023-02-21T09:11:28;100178.81;;;1.42;100.00
14295;BME280;7231;59.370;18.016;2023-02-21T09:13:56;100186.41;;;1.39;100.00
14295;BME280;7231;59.370;18.016;2023-02-21T09:16:25;100199.06;;;1.34;100.00
14295;BME280;7231;59.370;18.016;2023-02-21T09:18:55;100194.75;;;1.18;100.00
14295;BME280;7231;59.370;18.016;2023-02-21T09:21:25;100216.63;;;1.25;100.00
14295;BME280;7231;59.370;18.016;2023-02-21T09:23:54;100212.19;;;1.22;100.00
14295;BME280;7231;59.370;18.016;2023-02-21T09:26:22;100230.34;;;1.24;100.00
14295;BME280;7231;59.370;18.016;2023-02-21T09:28:51;100239.72;;;1.22;99.76
14295;BME280;7231;59.370;18.016;2023-02-21T09:31:19;100184.78;;;0.93;99.99
14295;BME280;7231;59.370;18.016;2023-02-21T09:33:49;100249.31;;;1.24;99.43
14295;BME280;7231;59.370;18.016;2023-02-21T09:36:17;100256.97;;;1.23;99.16
14295;BME280;7231;59.370;18.016;2023-02-21T09:38:49;100264.47;;;1.18;98.97
14295;BME280;7231;59.370;18.016;2023-02-21T09:41:18;100266.06;;;1.16;99.24
14295;BME280;7231;59.370;18.016;2023-02-21T09:43:48;100274.44;;;1.12;98.99
14295;BME280;7231;59.370;18.016;2023-02-21T09:46:30;100282.13;;;1.11;97.98
14295;BME280;7231;59.370;18.016;2023-02-21T09:49:00;100259.72;;;0.95;97.74
14295;BME280;7231;59.370;18.016;2023-02-21T09:51:30;100290.53;;;1.23;98.44
14295;BME280;7231;59.370;18.016;2023-02-21T09:53:59;100296.16;;;1.30;98.22
14295;BME280;7231;59.370;18.016;2023-02-21T09:56:32;100289.63;;;1.37;98.66
14295;BME280;7231;59.370;18.016;2023-02-21T09:59:02;100314.91;;;1.74;99.92
14295;BME280;7231;59.370;18.016;2023-02-21T10:01:41;100316.16;;;2.13;100.00
14295;BME280;7231;59.370;18.016;2023-02-21T10:04:19;100328.13;;;2.61;100.00
14295;BME280;7231;59.370;18.016;2023-02-21T10:06:50;100325.13;;;3.04;100.00
14295;BME280;7231;59.370;18.016;2023-02-21T10:09:26;100325.72;;;3.51;100.00
14295;BME280;7231;59.370;18.016;2023-02-21T10:12:05;100327.94;;;3.99;100.00
14295;BME280;7231;59.370;18.016;2023-02-21T10:14:42;100336.66;;;4.38;100.00
14295;BME280;7231;59.370;18.016;2023-02-21T10:17:18;100345.44;;;4.61;98.43
14295;BME280;7231;59.370;18.016;2023-02-21T10:19:53;100357.53;;;4.60;95.51
14295;BME280;7231;59.370;18.016;2023-02-21T10:22:24;100362.47;;;4.35;93.32
14295;BME280;7231;59.370;18.016;2023-02-21T10:24:53;100372.78;;;3.96;91.10
14295;BME280;7231;59.370;18.016;2023-02-21T10:27:24;100331.34;;;3.25;90.55
14295;BME280;7231;59.370;18.016;2023-02-21T10:29:55;100401.06;;;3.20;89.54
14295;BME280;7231;59.370;18.016;2023-02-21T10:32:24;100402.22;;;2.75;89.57
14295;BME280;7231;59.370;18.016;2023-02-21T10:34:54;100411.94;;;2.47;90.08
14295;BME280;7231;59.370;18.016;2023-02-21T10:37:36;100398.75;;;2.26;90.11
14295;BME280;7231;59.370;18.016;2023-02-21T10:40:23;100423.81;;;2.27;89.98
14295;BME280;7231;59.370;18.016;2023-02-21T10:42:56;100435.22;;;2.31;90.30
14295;BME280;7231;59.370;18.016;2023-02-21T10:45:33;100448.25;;;2.32;90.55
14295;BME280;7231;59.370;18.016;2023-02-21T10:48:04;100441.59;;;2.21;89.46
14295;BME280;7231;59.370;18.016;2023-02-21T10:50:43;100452.44;;;1.99;89.21
14295;BME280;7231;59.370;18.016;2023-02-21T10:53:28;100456.25;;;1.75;89.21
14295;BME280;7231;59.370;18.016;2023-02-21T10:56:23;100471.59;;;1.57;89.69
14295;BME280;7231;59.370;18.016;2023-02-21T10:58:55;100484.94;;;1.50;89.72
14295;BME280;7231;59.370;18.016;2023-02-21T11:01:32;100484.78;;;1.47;89.56
14295;BME280;7231;59.370;18.016;2023-02-21T11:04:03;100480.50;;;1.33;89.87
14295;BME280;7231;59.370;18.016;2023-02-21T11:06:35;100481.38;;;1.33;90.01
14295;BME280;7231;59.370;18.016;2023-02-21T11:09:33;100492.44;;;1.45;89.99
14295;BME280;7231;59.370;18.016;2023-02-21T11:12:05;100545.63;;;1.56;90.28
14295;BME280;7231;59.370;18.016;2023-02-21T11:14:34;100478.88;;;1.20;90.45
14295;BME280;7231;59.370;18.016;2023-02-21T11:17:20;100491.53;;;1.30;90.48
14295;BME280;7231;59.370;18.016;2023-02-21T11:19:50;100512.56;;;1.36;89.98
14295;BME280;7231;59.370;18.016;2023-02-21T11:22:23;100563.00;;;1.59;90.09
14295;BME280;7231;59.370;18.016;2023-02-21T11:24:57;100542.94;;;1.55;90.85
14295;BME280;7231;59.370;18.016;2023-02-21T11:27:29;100565.16;;;1.66;90.22
14295;BME280;7231;59.370;18.016;2023-02-21T11:30:00;100575.84;;;1.72;89.69
14295;BME280;7231;59.370;18.016;2023-02-21T11:32:32;100577.44;;;1.70;89.79
14295;BME280;7231;59.370;18.016;2023-02-21T11:35:14;100554.88;;;1.53;89.58
14295;BME280;7231;59.370;18.016;2023-02-21T11:37:52;100563.44;;;1.67;90.15
14295;BME280;7231;59.370;18.016;2023-02-21T11:40:23;100535.91;;;1.52;89.54
14295;BME280;7231;59.370;18.016;2023-02-21T11:42:51;100608.66;;;1.88;89.08
14295;BME280;7231;59.370;18.016;2023-02-21T11:45:37;100611.78;;;1.97;88.49
14295;BME280;7231;59.370;18.016;2023-02-21T11:48:12;100617.56;;;2.08;88.45
14295;BME280;7231;59.370;18.016;2023-02-21T11:50:45;100631.22;;;2.20;88.22
14295;BME280;7231;59.370;18.016;2023-02-21T11:53:22;100629.25;;;2.31;88.29
14295;BME280;7231;59.370;18.016;2023-02-21T11:55:55;100631.72;;;2.44;88.68
14295;BME280;7231;59.370;18.016;2023-02-21T11:58:30;100639.56;;;2.60;88.48
14295;BME280;7231;59.370;18.016;2023-02-21T12:01:03;100655.09;;;2.76;87.96
14295;BME280;7231;59.370;18.016;2023-02-21T12:03:54;100655.75;;;2.72;86.34
14295;BME280;7231;59.370;18.016;2023-02-21T12:06:34;100650.28;;;2.51;85.79
14295;BME280;7231;59.370;18.016;2023-02-21T12:09:09;100677.81;;;2.66;86.09
14295;BME280;7231;59.370;18.016;2023-02-21T12:11:48;100680.81;;;2.73;85.79
14295;BME280;7231;59.370;18.016;2023-02-21T12:14:33;100684.53;;;2.93;86.37
14295;BME280;7231;59.370;18.016;2023-02-21T12:17:14;100688.78;;;3.07;86.08
14295;BME280;7231;59.370;18.016;2023-02-21T12:19:57;100700.13;;;3.09;85.18
14295;BME280;7231;59.370;18.016;2023-02-21T12:22:50;100704.41;;;3.09;84.93
14295;BME280;7231;59.370;18.016;2023-02-21T12:25:31;100702.72;;;3.09;84.84
14295;BME280;7231;59.370;18.016;2023-02-21T12:28:12;100698.53;;;2.97;84.35
14295;BME280;7231;59.370;18.016;2023-02-21T12:31:10;100688.25;;;2.67;83.42
14295;BME280;7231;59.370;18.016;2023-02-21T12:33:47;100733.06;;;2.66;83.81
14295;BME280;7231;59.370;18.016;2023-02-21T12:39:21;100741.81;;;2.24;83.90
14295;BME280;7231;59.370;18.016;2023-02-21T12:42:15;100754.09;;;1.99;83.69
14295;BME280;7231;59.370;18.016;2023-02-21T12:44:59;100761.03;;;1.72;83.81
14295;BME280;7231;59.370;18.016;2023-02-21T12:47:31;100750.69;;;1.44;83.37
14295;BME280;7231;59.370;18.016;2023-02-21T12:50:06;100778.00;;;1.40;84.36
14295;BME280;7231;59.370;18.016;2023-02-21T12:52:46;100780.63;;;1.27;84.07
14295;BME280;7231;59.370;18.016;2023-02-21T12:55:20;100762.84;;;1.05;84.34
14295;BME280;7231;59.370;18.016;2023-02-21T12:57:54;100797.59;;;1.10;85.16
14295;BME280;7231;59.370;18.016;2023-02-21T13:00:24;100798.09;;;1.05;85.27
14295;BME280;7231;59.370;18.016;2023-02-21T13:03:00;100790.34;;;0.91;85.88
14295;BME280;7231;59.370;18.016;2023-02-21T13:05:36;100814.97;;;1.00;85.70
14295;BME280;7231;59.370;18.016;2023-02-21T13:08:13;100671.00;;;0.16;85.91
14295;BME280;7231;59.370;18.016;2023-02-21T13:10:51;100824.41;;;0.99;85.36
14295;BME280;7231;59.370;18.016;2023-02-21T13:13:26;100820.94;;;0.98;85.81
14295;BME280;7231;59.370;18.016;2023-02-21T13:16:00;100830.06;;;0.93;85.70
14295;BME280;7231;59.370;18.016;2023-02-21T13:18:32;100833.44;;;0.92;85.60
14295;BME280;7231;59.370;18.016;2023-02-21T13:21:06;100837.22;;;0.97;85.83
14295;BME280;7231;59.370;18.016;2023-02-21T13:23:44;100836.13;;;0.94;85.39
14295;BME280;7231;59.370;18.016;2023-02-21T13:26:34;100847.84;;;0.89;85.57
14295;BME280;7231;59.370;18.016;2023-02-21T13:29:16;100846.84;;;0.87;85.91
14295;BME280;7231;59.370;18.016;2023-02-21T13:31:45;100812.94;;;0.56;85.99
14295;BME280;7231;59.370;18.016;2023-02-21T13:34:17;100860.72;;;0.76;85.99
14295;BME280;7231;59.370;18.016;2023-02-21T13:36:49;100870.16;;;0.75;85.88
14295;BME280;7231;59.370;18.016;2023-02-21T13:39:19;100837.84;;;0.55;85.69